sensor_id;sensor_type;location;lat;lon;timestamp;P1;durP1;ratioP1;P2;durP2;ratioP2
47625;SDS011;33342;45.574;9.252;2023-02-01T00:00:27;51.13;;;30.60;;
47625;SDS011;33342;45.574;9.252;2023-02-01T00:02:54;51.40;;;28.08;;
47625;SDS011;33342;45.574;9.252;2023-02-01T00:05:21;46.92;;;27.05;;
47625;SDS011;33342;45.574;9.252;2023-02-01T00:07:49;45.40;;;26.80;;
47625;SDS011;33342;45.574;9.252;2023-02-01T00:10:16;40.35;;;24.55;;
47625;SDS011;33342;45.574;9.252;2023-02-01T00:12:44;47.40;;;25.98;;
47625;SDS011;33342;45.574;9.252;2023-02-01T00:15:11;49.50;;;25.98;;
47625;SDS011;33342;45.574;9.252;2023-02-01T00:17:38;48.15;;;26.67;;
47625;SDS011;33342;45.574;9.252;2023-02-01T00:20:05;46.50;;;25.90;;
47625;SDS011;33342;45.574;9.252;2023-02-01T00:22:33;45.97;;;25.05;;
47625;SDS011;33342;45.574;9.252;2023-02-01T00:25:00;43.53;;;25.25;;
47625;SDS011;33342;45.574;9.252;2023-02-01T00:27:27;46.90;;;25.00;;
47625;SDS011;33342;45.574;9.252;2023-02-01T00:29:55;45.42;;;23.80;;
47625;SDS011;33342;45.574;9.252;2023-02-01T00:32:22;42.30;;;23.80;;
47625;SDS011;33342;45.574;9.252;2023-02-01T00:34:49;45.58;;;24.50;;
47625;SDS011;33342;45.574;9.252;2023-02-01T00:37:17;46.33;;;23.73;;
47625;SDS011;33342;45.574;9.252;2023-02-01T00:39:44;42.53;;;23.63;;
47625;SDS011;33342;45.574;9.252;2023-02-01T00:42:12;36.15;;;21.10;;
47625;SDS011;33342;45.574;9.252;2023-02-01T00:44:39;40.88;;;22.05;;
47625;SDS011;33342;45.574;9.252;2023-02-01T00:47:06;42.92;;;21.92;;
47625;SDS011;33342;45.574;9.252;2023-02-01T00:49:33;42.88;;;24.73;;
47625;SDS011;33342;45.574;9.252;2023-02-01T00:52:00;39.25;;;22.17;;
47625;SDS011;33342;45.574;9.252;2023-02-01T00:54:27;43.95;;;22.73;;
47625;SDS011;33342;45.574;9.252;2023-02-01T00:56:54;43.83;;;22.70;;
47625;SDS011;33342;45.574;9.252;2023-02-01T00:59:21;33.83;;;20.70;;
47625;SDS011;33342;45.574;9.252;2023-02-01T01:01:48;40.10;;;23.10;;
47625;SDS011;33342;45.574;9.252;2023-02-01T01:04:15;39.88;;;19.95;;
47625;SDS011;33342;45.574;9.252;2023-02-01T01:06:43;40.92;;;22.65;;
47625;SDS011;33342;45.574;9.252;2023-02-01T01:09:09;38.97;;;21.55;;
47625;SDS011;33342;45.574;9.252;2023-02-01T01:11:37;39.72;;;21.98;;
47625;SDS011;33342;45.574;9.252;2023-02-01T01:14:06;36.13;;;19.98;;
47625;SDS011;33342;45.574;9.252;2023-02-01T01:16:34;31.67;;;19.27;;
47625;SDS011;33342;45.574;9.252;2023-02-01T01:19:02;38.15;;;19.65;;
47625;SDS011;33342;45.574;9.252;2023-02-01T01:21:29;41.65;;;21.98;;
47625;SDS011;33342;45.574;9.252;2023-02-01T01:23:56;35.42;;;18.90;;
47625;SDS011;33342;45.574;9.252;2023-02-01T01:26:25;40.65;;;21.48;;
47625;SDS011;33342;45.574;9.252;2023-02-01T01:28:55;36.08;;;19.05;;
47625;SDS011;33342;45.574;9.252;2023-02-01T01:31:23;39.72;;;19.90;;
47625;SDS011;33342;45.574;9.252;2023-02-01T01:33:51;37.63;;;20.67;;
47625;SDS011;33342;45.574;9.252;2023-02-01T01:36:20;40.35;;;21.08;;
47625;SDS011;33342;45.574;9.252;2023-02-01T01:38:48;35.67;;;19.83;;
47625;SDS011;33342;45.574;9.252;2023-02-01T01:41:20;36.92;;;20.65;;
47625;SDS011;33342;45.574;9.252;2023-02-01T01:43:59;35.28;;;19.73;;
47625;SDS011;33342;45.574;9.252;2023-02-01T01:46:29;34.05;;;19.30;;
47625;SDS011;33342;45.574;9.252;2023-02-01T01:49:04;34.70;;;19.33;;
47625;SDS011;33342;45.574;9.252;2023-02-01T01:51:40;32.22;;;17.00;;
47625;SDS011;33342;45.574;9.252;2023-02-01T01:57:01;38.45;;;19.52;;
47625;SDS011;33342;45.574;9.252;2023-02-01T01:59:32;36.03;;;17.23;;
47625;SDS011;33342;45.574;9.252;2023-02-01T02:02:04;35.05;;;18.33;;
47625;SDS011;33342;45.574;9.252;2023-02-01T02:04:32;31.63;;;17.25;;
47625;SDS011;33342;45.574;9.252;2023-02-01T02:07:03;33.63;;;17.35;;
47625;SDS011;33342;45.574;9.252;2023-02-01T02:09:33;35.58;;;18.48;;
47625;SDS011;33342;45.574;9.252;2023-02-01T02:12:00;31.83;;;16.75;;
47625;SDS011;33342;45.574;9.252;2023-02-01T02:14:27;31.52;;;17.13;;
47625;SDS011;33342;45.574;9.252;2023-02-01T02:20:06;31.17;;;16.30;;
47625;SDS011;33342;45.574;9.252;2023-02-01T02:34:07;28.70;;;15.32;;
47625;SDS011;33342;45.574;9.252;2023-02-01T02:42:41;24.00;;;14.55;;
47625;SDS011;33342;45.574;9.252;2023-02-01T02:45:59;24.95;;;13.82;;
47625;SDS011;33342;45.574;9.252;2023-02-01T02:48:54;25.52;;;13.10;;
47625;SDS011;33342;45.574;9.252;2023-02-01T02:54:27;24.60;;;13.93;;
47625;SDS011;33342;45.574;9.252;2023-02-01T02:57:20;31.67;;;17.38;;
47625;SDS011;33342;45.574;9.252;2023-02-01T03:00:14;26.30;;;13.23;;
47625;SDS011;33342;45.574;9.252;2023-02-01T03:03:02;23.38;;;12.70;;
47625;SDS011;33342;45.574;9.252;2023-02-01T03:05:49;21.83;;;13.85;;
47625;SDS011;33342;45.574;9.252;2023-02-01T03:08:23;25.25;;;13.07;;
47625;SDS011;33342;45.574;9.252;2023-02-01T03:10:58;25.42;;;13.50;;
47625;SDS011;33342;45.574;9.252;2023-02-01T03:13:53;23.05;;;12.50;;
47625;SDS011;33342;45.574;9.252;2023-02-01T03:19:12;23.40;;;13.23;;
47625;SDS011;33342;45.574;9.252;2023-02-01T03:22:25;25.15;;;13.10;;
47625;SDS011;33342;45.574;9.252;2023-02-01T03:24:54;29.25;;;14.15;;
47625;SDS011;33342;45.574;9.252;2023-02-01T03:30:12;24.40;;;12.68;;
47625;SDS011;33342;45.574;9.252;2023-02-01T03:32:48;29.90;;;13.32;;
47625;SDS011;33342;45.574;9.252;2023-02-01T03:40:53;24.27;;;13.50;;
47625;SDS011;33342;45.574;9.252;2023-02-01T03:43:29;23.40;;;13.32;;
47625;SDS011;33342;45.574;9.252;2023-02-01T03:46:04;22.00;;;12.15;;
47625;SDS011;33342;45.574;9.252;2023-02-01T03:48:36;23.75;;;13.48;;
47625;SDS011;33342;45.574;9.252;2023-02-01T03:51:04;27.50;;;13.35;;
47625;SDS011;33342;45.574;9.252;2023-02-01T03:53:33;23.80;;;14.02;;
47625;SDS011;33342;45.574;9.252;2023-02-01T03:56:05;23.35;;;12.45;;
47625;SDS011;33342;45.574;9.252;2023-02-01T03:58:33;29.35;;;15.18;;
47625;SDS011;33342;45.574;9.252;2023-02-01T04:01:00;22.98;;;12.35;;
47625;SDS011;33342;45.574;9.252;2023-02-01T04:03:30;24.85;;;12.60;;
47625;SDS011;33342;45.574;9.252;2023-02-01T04:05:58;22.88;;;12.30;;
47625;SDS011;33342;45.574;9.252;2023-02-01T04:08:27;21.27;;;10.90;;
47625;SDS011;33342;45.574;9.252;2023-02-01T04:10:54;23.58;;;11.77;;
47625;SDS011;33342;45.574;9.252;2023-02-01T04:13:21;20.20;;;10.93;;
47625;SDS011;33342;45.574;9.252;2023-02-01T04:15:48;20.90;;;10.90;;
47625;SDS011;33342;45.574;9.252;2023-02-01T04:18:18;19.98;;;11.23;;
47625;SDS011;33342;45.574;9.252;2023-02-01T04:20:45;19.10;;;10.50;;
47625;SDS011;33342;45.574;9.252;2023-02-01T04:23:12;22.63;;;11.07;;
47625;SDS011;33342;45.574;9.252;2023-02-01T04:25:39;23.70;;;11.98;;
47625;SDS011;33342;45.574;9.252;2023-02-01T04:28:06;20.38;;;11.13;;
47625;SDS011;33342;45.574;9.252;2023-02-01T04:30:33;18.73;;;10.25;;
47625;SDS011;33342;45.574;9.252;2023-02-01T04:33:00;19.35;;;9.80;;
47625;SDS011;33342;45.574;9.252;2023-02-01T04:35:29;19.35;;;9.27;;
47625;SDS011;33342;45.574;9.252;2023-02-01T04:37:56;17.60;;;9.18;;
47625;SDS011;33342;45.574;9.252;2023-02-01T04:40:23;20.05;;;10.18;;
47625;SDS011;33342;45.574;9.252;2023-02-01T04:42:51;19.00;;;9.50;;
47625;SDS011;33342;45.574;9.252;2023-02-01T04:45:18;18.33;;;10.52;;
47625;SDS011;33342;45.574;9.252;2023-02-01T04:47:45;18.70;;;9.18;;
47625;SDS011;33342;45.574;9.252;2023-02-01T04:50:12;19.30;;;9.93;;
47625;SDS011;33342;45.574;9.252;2023-02-01T04:52:39;19.30;;;10.32;;
47625;SDS011;33342;45.574;9.252;2023-02-01T04:55:07;20.25;;;9.38;;
47625;SDS011;33342;45.574;9.252;2023-02-01T04:57:34;17.70;;;9.10;;
47625;SDS011;33342;45.574;9.252;2023-02-01T05:00:01;15.68;;;9.02;;
47625;SDS011;33342;45.574;9.252;2023-02-01T05:02:28;16.58;;;8.95;;
47625;SDS011;33342;45.574;9.252;2023-02-01T05:04:55;16.05;;;9.43;;
47625;SDS011;33342;45.574;9.252;2023-02-01T05:07:23;16.45;;;9.07;;
47625;SDS011;33342;45.574;9.252;2023-02-01T05:09:50;23.83;;;9.65;;
47625;SDS011;33342;45.574;9.252;2023-02-01T05:12:17;18.25;;;9.63;;
47625;SDS011;33342;45.574;9.252;2023-02-01T05:15:03;15.37;;;9.00;;
47625;SDS011;33342;45.574;9.252;2023-02-01T05:17:30;18.80;;;9.38;;
47625;SDS011;33342;45.574;9.252;2023-02-01T05:19:57;17.60;;;9.02;;
47625;SDS011;33342;45.574;9.252;2023-02-01T05:22:24;16.50;;;8.65;;
47625;SDS011;33342;45.574;9.252;2023-02-01T05:24:51;16.75;;;7.75;;
47625;SDS011;33342;45.574;9.252;2023-02-01T05:27:18;17.50;;;8.95;;
47625;SDS011;33342;45.574;9.252;2023-02-01T05:29:45;16.33;;;7.93;;
47625;SDS011;33342;45.574;9.252;2023-02-01T05:32:12;17.63;;;8.38;;
47625;SDS011;33342;45.574;9.252;2023-02-01T05:34:48;16.23;;;8.52;;
47625;SDS011;33342;45.574;9.252;2023-02-01T05:37:15;17.67;;;8.75;;
47625;SDS011;33342;45.574;9.252;2023-02-01T05:39:42;23.33;;;9.80;;
47625;SDS011;33342;45.574;9.252;2023-02-01T05:42:09;14.85;;;7.85;;
47625;SDS011;33342;45.574;9.252;2023-02-01T05:44:36;17.95;;;9.43;;
47625;SDS011;33342;45.574;9.252;2023-02-01T05:47:03;17.48;;;9.25;;
47625;SDS011;33342;45.574;9.252;2023-02-01T05:49:30;16.80;;;8.05;;
47625;SDS011;33342;45.574;9.252;2023-02-01T05:51:57;17.73;;;8.73;;
47625;SDS011;33342;45.574;9.252;2023-02-01T05:54:26;15.80;;;9.10;;
47625;SDS011;33342;45.574;9.252;2023-02-01T05:56:53;17.60;;;9.35;;
47625;SDS011;33342;45.574;9.252;2023-02-01T05:59:20;23.42;;;9.80;;
47625;SDS011;33342;45.574;9.252;2023-02-01T06:01:47;20.17;;;8.65;;
47625;SDS011;33342;45.574;9.252;2023-02-01T06:04:14;14.82;;;8.00;;
47625;SDS011;33342;45.574;9.252;2023-02-01T06:06:41;20.58;;;9.07;;
47625;SDS011;33342;45.574;9.252;2023-02-01T06:09:08;16.35;;;9.73;;
47625;SDS011;33342;45.574;9.252;2023-02-01T06:11:35;20.13;;;8.80;;
47625;SDS011;33342;45.574;9.252;2023-02-01T06:14:02;17.80;;;9.65;;
47625;SDS011;33342;45.574;9.252;2023-02-01T06:16:29;22.95;;;9.32;;
47625;SDS011;33342;45.574;9.252;2023-02-01T06:18:56;26.35;;;10.30;;
47625;SDS011;33342;45.574;9.252;2023-02-01T06:21:24;19.50;;;8.75;;
47625;SDS011;33342;45.574;9.252;2023-02-01T06:23:54;21.52;;;9.50;;
47625;SDS011;33342;45.574;9.252;2023-02-01T06:26:24;17.83;;;9.82;;
47625;SDS011;33342;45.574;9.252;2023-02-01T06:28:51;20.50;;;10.35;;
47625;SDS011;33342;45.574;9.252;2023-02-01T06:31:18;19.10;;;10.18;;
47625;SDS011;33342;45.574;9.252;2023-02-01T06:33:46;19.40;;;10.07;;
47625;SDS011;33342;45.574;9.252;2023-02-01T06:36:16;25.63;;;9.95;;
47625;SDS011;33342;45.574;9.252;2023-02-01T06:38:45;19.45;;;10.10;;
47625;SDS011;33342;45.574;9.252;2023-02-01T06:41:11;21.00;;;9.77;;
47625;SDS011;33342;45.574;9.252;2023-02-01T06:43:39;22.77;;;10.13;;
47625;SDS011;33342;45.574;9.252;2023-02-01T06:46:07;24.75;;;9.85;;
47625;SDS011;33342;45.574;9.252;2023-02-01T06:48:36;19.10;;;10.05;;
47625;SDS011;33342;45.574;9.252;2023-02-01T06:51:03;20.13;;;10.88;;
47625;SDS011;33342;45.574;9.252;2023-02-01T06:53:31;23.73;;;11.55;;
47625;SDS011;33342;45.574;9.252;2023-02-01T06:55:58;27.80;;;12.35;;
47625;SDS011;33342;45.574;9.252;2023-02-01T06:58:31;23.80;;;10.68;;
47625;SDS011;33342;45.574;9.252;2023-02-01T07:01:06;21.30;;;11.13;;
47625;SDS011;33342;45.574;9.252;2023-02-01T07:03:34;23.50;;;11.27;;
47625;SDS011;33342;45.574;9.252;2023-02-01T07:06:02;23.88;;;10.95;;
47625;SDS011;33342;45.574;9.252;2023-02-01T07:08:31;23.60;;;12.45;;
47625;SDS011;33342;45.574;9.252;2023-02-01T07:11:06;21.83;;;11.35;;
47625;SDS011;33342;45.574;9.252;2023-02-01T07:13:38;23.83;;;11.93;;
47625;SDS011;33342;45.574;9.252;2023-02-01T07:16:07;24.40;;;12.00;;
47625;SDS011;33342;45.574;9.252;2023-02-01T07:18:37;23.67;;;13.45;;
47625;SDS011;33342;45.574;9.252;2023-02-01T07:21:05;26.40;;;12.98;;
47625;SDS011;33342;45.574;9.252;2023-02-01T07:23:32;27.77;;;13.10;;
47625;SDS011;33342;45.574;9.252;2023-02-01T07:26:00;32.10;;;14.02;;
47625;SDS011;33342;45.574;9.252;2023-02-01T07:28:30;30.67;;;11.98;;
47625;SDS011;33342;45.574;9.252;2023-02-01T07:31:08;24.30;;;13.05;;
47625;SDS011;33342;45.574;9.252;2023-02-01T07:33:41;27.30;;;13.50;;
47625;SDS011;33342;45.574;9.252;2023-02-01T07:36:10;28.05;;;12.05;;
47625;SDS011;33342;45.574;9.252;2023-02-01T07:38:39;23.13;;;11.45;;
47625;SDS011;33342;45.574;9.252;2023-02-01T07:41:06;26.23;;;12.15;;
47625;SDS011;33342;45.574;9.252;2023-02-01T07:43:34;24.70;;;13.00;;
47625;SDS011;33342;45.574;9.252;2023-02-01T07:46:02;24.52;;;12.95;;
47625;SDS011;33342;45.574;9.252;2023-02-01T07:48:30;25.40;;;13.32;;
47625;SDS011;33342;45.574;9.252;2023-02-01T07:50:58;31.40;;;13.73;;
47625;SDS011;33342;45.574;9.252;2023-02-01T07:53:29;22.92;;;13.30;;
47625;SDS011;33342;45.574;9.252;2023-02-01T07:55:57;27.67;;;13.57;;
47625;SDS011;33342;45.574;9.252;2023-02-01T07:58:25;28.35;;;14.48;;
47625;SDS011;33342;45.574;9.252;2023-02-01T08:00:52;29.90;;;13.10;;
47625;SDS011;33342;45.574;9.252;2023-02-01T08:03:38;27.50;;;13.40;;
47625;SDS011;33342;45.574;9.252;2023-02-01T08:06:05;28.27;;;13.68;;
47625;SDS011;33342;45.574;9.252;2023-02-01T08:08:32;27.27;;;13.23;;
47625;SDS011;33342;45.574;9.252;2023-02-01T08:11:01;113.43;;;21.23;;
47625;SDS011;33342;45.574;9.252;2023-02-01T08:13:30;31.00;;;14.35;;
47625;SDS011;33342;45.574;9.252;2023-02-01T08:15:58;29.15;;;14.43;;
47625;SDS011;33342;45.574;9.252;2023-02-01T08:18:26;27.20;;;13.77;;
47625;SDS011;33342;45.574;9.252;2023-02-01T08:20:53;24.13;;;14.02;;
47625;SDS011;33342;45.574;9.252;2023-02-01T08:23:21;31.98;;;13.43;;
47625;SDS011;33342;45.574;9.252;2023-02-01T08:25:49;27.08;;;14.45;;
47625;SDS011;33342;45.574;9.252;2023-02-01T08:28:16;29.50;;;14.05;;
47625;SDS011;33342;45.574;9.252;2023-02-01T08:30:43;29.58;;;14.25;;
47625;SDS011;33342;45.574;9.252;2023-02-01T08:33:10;28.92;;;15.20;;
47625;SDS011;33342;45.574;9.252;2023-02-01T08:35:38;30.38;;;15.45;;
47625;SDS011;33342;45.574;9.252;2023-02-01T08:38:09;34.28;;;16.02;;
47625;SDS011;33342;45.574;9.252;2023-02-01T08:40:37;33.33;;;14.48;;
47625;SDS011;33342;45.574;9.252;2023-02-01T08:43:03;28.80;;;15.77;;
47625;SDS011;33342;45.574;9.252;2023-02-01T08:45:30;34.50;;;17.38;;
47625;SDS011;33342;45.574;9.252;2023-02-01T08:47:58;31.77;;;15.95;;
47625;SDS011;33342;45.574;9.252;2023-02-01T08:50:26;31.58;;;18.00;;
47625;SDS011;33342;45.574;9.252;2023-02-01T08:52:53;32.70;;;16.67;;
47625;SDS011;33342;45.574;9.252;2023-02-01T08:55:20;36.88;;;18.50;;
47625;SDS011;33342;45.574;9.252;2023-02-01T08:57:47;28.42;;;16.48;;
47625;SDS011;33342;45.574;9.252;2023-02-01T09:00:15;39.40;;;18.15;;
47625;SDS011;33342;45.574;9.252;2023-02-01T09:02:43;34.83;;;17.80;;
47625;SDS011;33342;45.574;9.252;2023-02-01T09:05:11;32.22;;;18.70;;
47625;SDS011;33342;45.574;9.252;2023-02-01T09:07:38;33.08;;;18.55;;
47625;SDS011;33342;45.574;9.252;2023-02-01T09:10:05;37.65;;;17.75;;
47625;SDS011;33342;45.574;9.252;2023-02-01T09:12:33;29.02;;;16.52;;
47625;SDS011;33342;45.574;9.252;2023-02-01T09:15:01;31.05;;;16.65;;
47625;SDS011;33342;45.574;9.252;2023-02-01T09:17:29;24.20;;;14.50;;
47625;SDS011;33342;45.574;9.252;2023-02-01T09:19:56;27.25;;;13.52;;
47625;SDS011;33342;45.574;9.252;2023-02-01T09:22:23;33.50;;;14.35;;
47625;SDS011;33342;45.574;9.252;2023-02-01T09:24:51;27.90;;;14.27;;
47625;SDS011;33342;45.574;9.252;2023-02-01T09:27:20;34.45;;;15.10;;
47625;SDS011;33342;45.574;9.252;2023-02-01T09:29:48;29.63;;;15.55;;
47625;SDS011;33342;45.574;9.252;2023-02-01T09:32:19;31.05;;;17.05;;
47625;SDS011;33342;45.574;9.252;2023-02-01T09:34:48;29.10;;;16.42;;
47625;SDS011;33342;45.574;9.252;2023-02-01T09:37:16;49.63;;;16.65;;
47625;SDS011;33342;45.574;9.252;2023-02-01T09:39:44;25.90;;;16.50;;
47625;SDS011;33342;45.574;9.252;2023-02-01T09:42:28;29.13;;;15.98;;
47625;SDS011;33342;45.574;9.252;2023-02-01T09:48:12;30.67;;;15.82;;
47625;SDS011;33342;45.574;9.252;2023-02-01T09:50:52;24.52;;;15.68;;
47625;SDS011;33342;45.574;9.252;2023-02-01T09:53:33;25.88;;;15.55;;
47625;SDS011;33342;45.574;9.252;2023-02-01T09:56:05;28.95;;;15.10;;
47625;SDS011;33342;45.574;9.252;2023-02-01T09:58:52;33.83;;;16.17;;
47625;SDS011;33342;45.574;9.252;2023-02-01T10:01:40;31.02;;;16.20;;
47625;SDS011;33342;45.574;9.252;2023-02-01T10:04:10;26.40;;;15.52;;
47625;SDS011;33342;45.574;9.252;2023-02-01T10:15:22;24.23;;;13.00;;
47625;SDS011;33342;45.574;9.252;2023-02-01T10:21:09;24.98;;;11.70;;
47625;SDS011;33342;45.574;9.252;2023-02-01T10:26:28;19.58;;;10.75;;
47625;SDS011;33342;45.574;9.252;2023-02-01T10:29:00;15.55;;;7.85;;
47625;SDS011;33342;45.574;9.252;2023-02-01T10:31:30;14.48;;;7.45;;
47625;SDS011;33342;45.574;9.252;2023-02-01T10:34:06;17.98;;;7.30;;
47625;SDS011;33342;45.574;9.252;2023-02-01T10:36:46;20.17;;;7.07;;
47625;SDS011;33342;45.574;9.252;2023-02-01T10:39:21;15.48;;;7.13;;
47625;SDS011;33342;45.574;9.252;2023-02-01T10:41:49;15.45;;;6.78;;
47625;SDS011;33342;45.574;9.252;2023-02-01T10:44:18;14.73;;;7.10;;
47625;SDS011;33342;45.574;9.252;2023-02-01T10:46:49;13.98;;;6.32;;
47625;SDS011;33342;45.574;9.252;2023-02-01T10:49:32;17.33;;;7.93;;
47625;SDS011;33342;45.574;9.252;2023-02-01T10:52:12;16.40;;;9.30;;
47625;SDS011;33342;45.574;9.252;2023-02-01T10:54:47;16.25;;;7.22;;
47625;SDS011;33342;45.574;9.252;2023-02-01T10:57:24;22.35;;;8.23;;
47625;SDS011;33342;45.574;9.252;2023-02-01T10:59:52;15.80;;;7.40;;
47625;SDS011;33342;45.574;9.252;2023-02-01T11:02:25;14.40;;;7.93;;
47625;SDS011;33342;45.574;9.252;2023-02-01T11:07:29;17.42;;;8.45;;
47625;SDS011;33342;45.574;9.252;2023-02-01T11:09:57;17.35;;;7.85;;
47625;SDS011;33342;45.574;9.252;2023-02-01T11:14:56;15.98;;;7.65;;
47625;SDS011;33342;45.574;9.252;2023-02-01T11:17:29;17.52;;;7.82;;
47625;SDS011;33342;45.574;9.252;2023-02-01T11:20:08;20.00;;;8.55;;
47625;SDS011;33342;45.574;9.252;2023-02-01T11:22:52;18.25;;;7.30;;
47625;SDS011;33342;45.574;9.252;2023-02-01T11:25:22;18.00;;;7.05;;
47625;SDS011;33342;45.574;9.252;2023-02-01T11:27:51;13.70;;;6.90;;
47625;SDS011;33342;45.574;9.252;2023-02-01T11:30:34;15.65;;;7.45;;
47625;SDS011;33342;45.574;9.252;2023-02-01T11:33:05;14.88;;;6.82;;
47625;SDS011;33342;45.574;9.252;2023-02-01T11:35:35;12.55;;;6.40;;
47625;SDS011;33342;45.574;9.252;2023-02-01T11:38:14;17.40;;;7.15;;
47625;SDS011;33342;45.574;9.252;2023-02-01T11:40:51;19.10;;;7.25;;
47625;SDS011;33342;45.574;9.252;2023-02-01T11:43:25;12.65;;;6.07;;
47625;SDS011;33342;45.574;9.252;2023-02-01T11:45:58;13.75;;;5.95;;
47625;SDS011;33342;45.574;9.252;2023-02-01T11:48:27;14.27;;;6.43;;
47625;SDS011;33342;45.574;9.252;2023-02-01T11:51:19;14.70;;;6.18;;
47625;SDS011;33342;45.574;9.252;2023-02-01T11:54:02;13.13;;;6.20;;
47625;SDS011;33342;45.574;9.252;2023-02-01T12:04:51;16.02;;;7.00;;
47625;SDS011;33342;45.574;9.252;2023-02-01T12:07:33;16.08;;;6.32;;
47625;SDS011;33342;45.574;9.252;2023-02-01T12:12:59;12.05;;;4.97;;
47625;SDS011;33342;45.574;9.252;2023-02-01T12:15:55;14.13;;;5.60;;
47625;SDS011;33342;45.574;9.252;2023-02-01T12:27:08;14.00;;;6.10;;
47625;SDS011;33342;45.574;9.252;2023-02-01T12:40:41;15.95;;;7.45;;
47625;SDS011;33342;45.574;9.252;2023-02-01T12:46:24;18.90;;;6.95;;
47625;SDS011;33342;45.574;9.252;2023-02-01T12:52:12;17.10;;;8.15;;
47625;SDS011;33342;45.574;9.252;2023-02-01T12:55:03;12.63;;;6.75;;
47625;SDS011;33342;45.574;9.252;2023-02-01T12:58:04;13.43;;;6.60;;
47625;SDS011;33342;45.574;9.252;2023-02-01T13:00:51;14.40;;;7.22;;
47625;SDS011;33342;45.574;9.252;2023-02-01T13:06:32;17.75;;;7.22;;
47625;SDS011;33342;45.574;9.252;2023-02-01T13:11:54;17.10;;;7.32;;
47625;SDS011;33342;45.574;9.252;2023-02-01T13:19:45;13.68;;;6.82;;
47625;SDS011;33342;45.574;9.252;2023-02-01T13:22:19;14.85;;;6.45;;
47625;SDS011;33342;45.574;9.252;2023-02-01T13:24:53;13.82;;;6.32;;
47625;SDS011;33342;45.574;9.252;2023-02-01T13:27:27;15.80;;;6.55;;
47625;SDS011;33342;45.574;9.252;2023-02-01T13:41:31;16.27;;;7.60;;
47625;SDS011;33342;45.574;9.252;2023-02-01T13:44:05;15.27;;;6.80;;
47625;SDS011;33342;45.574;9.252;2023-02-01T13:46:41;12.90;;;5.88;;
47625;SDS011;33342;45.574;9.252;2023-02-01T13:49:22;14.07;;;5.18;;
47625;SDS011;33342;45.574;9.252;2023-02-01T13:51:56;17.70;;;6.10;;
47625;SDS011;33342;45.574;9.252;2023-02-01T13:56:54;17.73;;;8.05;;
47625;SDS011;33342;45.574;9.252;2023-02-01T14:05:12;15.75;;;5.53;;
47625;SDS011;33342;45.574;9.252;2023-02-01T14:21:15;13.18;;;4.68;;
47625;SDS011;33342;45.574;9.252;2023-02-01T14:26:20;11.43;;;5.45;;
47625;SDS011;33342;45.574;9.252;2023-02-01T14:44:45;12.85;;;4.93;;
47625;SDS011;33342;45.574;9.252;2023-02-01T14:47:27;10.95;;;4.63;;
47625;SDS011;33342;45.574;9.252;2023-02-01T14:55:42;10.63;;;4.90;;
47625;SDS011;33342;45.574;9.252;2023-02-01T15:01:02;13.07;;;4.95;;
47625;SDS011;33342;45.574;9.252;2023-02-01T15:03:50;10.20;;;5.28;;
47625;SDS011;33342;45.574;9.252;2023-02-01T15:09:24;11.07;;;4.47;;
47625;SDS011;33342;45.574;9.252;2023-02-01T15:14:39;13.45;;;5.38;;
47625;SDS011;33342;45.574;9.252;2023-02-01T15:19:52;10.00;;;5.38;;
47625;SDS011;33342;45.574;9.252;2023-02-01T15:22:20;14.98;;;7.28;;
47625;SDS011;33342;45.574;9.252;2023-02-01T15:24:55;10.05;;;5.75;;
47625;SDS011;33342;45.574;9.252;2023-02-01T15:27:24;12.38;;;5.70;;
47625;SDS011;33342;45.574;9.252;2023-02-01T15:29:52;12.68;;;6.10;;
47625;SDS011;33342;45.574;9.252;2023-02-01T15:32:32;14.13;;;5.75;;
47625;SDS011;33342;45.574;9.252;2023-02-01T15:35:04;13.87;;;5.67;;
47625;SDS011;33342;45.574;9.252;2023-02-01T15:37:32;11.18;;;5.70;;
47625;SDS011;33342;45.574;9.252;2023-02-01T15:40:18;12.13;;;6.05;;
47625;SDS011;33342;45.574;9.252;2023-02-01T15:42:52;13.20;;;4.68;;
47625;SDS011;33342;45.574;9.252;2023-02-01T15:45:28;12.75;;;5.72;;
47625;SDS011;33342;45.574;9.252;2023-02-01T15:47:56;11.15;;;4.68;;
47625;SDS011;33342;45.574;9.252;2023-02-01T15:50:24;9.40;;;4.50;;
47625;SDS011;33342;45.574;9.252;2023-02-01T15:52:55;12.85;;;5.18;;
47625;SDS011;33342;45.574;9.252;2023-02-01T15:58:22;13.52;;;5.45;;
47625;SDS011;33342;45.574;9.252;2023-02-01T16:00:51;9.05;;;4.63;;
47625;SDS011;33342;45.574;9.252;2023-02-01T16:03:35;13.63;;;5.63;;
47625;SDS011;33342;45.574;9.252;2023-02-01T16:06:05;11.63;;;5.25;;
47625;SDS011;33342;45.574;9.252;2023-02-01T16:08:35;9.70;;;4.88;;
47625;SDS011;33342;45.574;9.252;2023-02-01T16:13:36;10.93;;;5.38;;
47625;SDS011;33342;45.574;9.252;2023-02-01T16:16:03;15.52;;;5.63;;
47625;SDS011;33342;45.574;9.252;2023-02-01T16:18:34;12.02;;;5.25;;
47625;SDS011;33342;45.574;9.252;2023-02-01T16:21:01;14.00;;;5.85;;
47625;SDS011;33342;45.574;9.252;2023-02-01T16:23:28;12.75;;;6.05;;
47625;SDS011;33342;45.574;9.252;2023-02-01T16:25:57;14.73;;;6.57;;
47625;SDS011;33342;45.574;9.252;2023-02-01T16:28:24;12.05;;;5.50;;
47625;SDS011;33342;45.574;9.252;2023-02-01T16:30:52;11.82;;;5.22;;
47625;SDS011;33342;45.574;9.252;2023-02-01T16:33:20;17.23;;;6.32;;
47625;SDS011;33342;45.574;9.252;2023-02-01T16:35:51;16.63;;;6.50;;
47625;SDS011;33342;45.574;9.252;2023-02-01T16:38:22;15.68;;;6.53;;
47625;SDS011;33342;45.574;9.252;2023-02-01T16:40:50;12.18;;;5.93;;
47625;SDS011;33342;45.574;9.252;2023-02-01T16:43:21;11.20;;;5.70;;
47625;SDS011;33342;45.574;9.252;2023-02-01T16:45:49;15.90;;;6.45;;
47625;SDS011;33342;45.574;9.252;2023-02-01T16:50:53;11.02;;;5.47;;
47625;SDS011;33342;45.574;9.252;2023-02-01T16:53:27;11.57;;;6.18;;
47625;SDS011;33342;45.574;9.252;2023-02-01T16:55:58;15.32;;;6.43;;
47625;SDS011;33342;45.574;9.252;2023-02-01T16:58:25;14.30;;;6.18;;
47625;SDS011;33342;45.574;9.252;2023-02-01T17:00:53;16.92;;;5.88;;
47625;SDS011;33342;45.574;9.252;2023-02-01T17:03:21;16.42;;;7.63;;
47625;SDS011;33342;45.574;9.252;2023-02-01T17:05:49;13.05;;;6.40;;
47625;SDS011;33342;45.574;9.252;2023-02-01T17:08:22;14.90;;;7.00;;
47625;SDS011;33342;45.574;9.252;2023-02-01T17:10:54;14.73;;;6.57;;
47625;SDS011;33342;45.574;9.252;2023-02-01T17:13:21;15.93;;;6.93;;
47625;SDS011;33342;45.574;9.252;2023-02-01T17:15:50;14.93;;;8.13;;
47625;SDS011;33342;45.574;9.252;2023-02-01T17:18:21;23.73;;;8.23;;
47625;SDS011;33342;45.574;9.252;2023-02-01T17:20:48;16.20;;;8.27;;
47625;SDS011;33342;45.574;9.252;2023-02-01T17:23:18;16.17;;;7.60;;
47625;SDS011;33342;45.574;9.252;2023-02-01T17:25:45;20.08;;;8.27;;
47625;SDS011;33342;45.574;9.252;2023-02-01T17:28:14;14.63;;;7.45;;
47625;SDS011;33342;45.574;9.252;2023-02-01T17:30:41;15.25;;;7.35;;
47625;SDS011;33342;45.574;9.252;2023-02-01T17:33:16;18.50;;;8.02;;
47625;SDS011;33342;45.574;9.252;2023-02-01T17:35:51;14.80;;;7.00;;
47625;SDS011;33342;45.574;9.252;2023-02-01T17:38:21;19.98;;;9.10;;
47625;SDS011;33342;45.574;9.252;2023-02-01T17:40:49;17.10;;;8.50;;
47625;SDS011;33342;45.574;9.252;2023-02-01T17:43:21;23.25;;;9.55;;
47625;SDS011;33342;45.574;9.252;2023-02-01T17:48:23;22.13;;;9.63;;
47625;SDS011;33342;45.574;9.252;2023-02-01T17:50:53;17.23;;;9.48;;
47625;SDS011;33342;45.574;9.252;2023-02-01T17:53:27;24.10;;;10.75;;
47625;SDS011;33342;45.574;9.252;2023-02-01T17:55:55;18.58;;;9.88;;
47625;SDS011;33342;45.574;9.252;2023-02-01T17:58:27;18.63;;;9.57;;